Fort St John Airport
CYXJ : now visible

Airfield :











YOU CAN JOIN US ON...

 
LOGIN :

Register | Disclaimer

   EN    FR    IT 

 









Legend :    VFR   Marginal VFR   IFR   Intensive IFR   Very Intensive IFR
Visi :
Ceiling :
>= 8 km
>= 3000ft
5 to 8 km
1000 to 3000 ft
1500m to 5 km
500 to 1000 ft
800 to 1500m
200 to 500 ft
< 800m
< 200 ft
Symbols :   Thunderstorms  Fog  Heavy snow  Heavy precipitations  Wind > 20 kt






- Airport Elevation : 2280 ft
- IATA code : YXJ


CYXJ - Fort St John

CURRENT METAR :
  • 172012Z 33004KT 2SM -SN BKN015 OVC030 M28/M32 A3036 RMK SC6SC2 SLP371

EXPIRED METARs :
  • 172000Z 32005KT 3SM -SN BKN017 OVC035 M28/M32 A3035 RMK SC6SC2 SLP370
  • 171900Z 36004KT 3SM -SN OVC030 M29/M33 A3034 RMK SC8 SLP366
  • 171838Z 34003KT 3SM -SN BKN018 OVC030 M29/M33 A3033 RMK SC5SC3 SLP365
  • 171816Z 33003KT 2SM -SN BKN015 OVC032 M29/M33 A3033 RMK SC5SC3 SLP363

TAF TAF CYXJ
Valid from the 17 at 19:00 until the 18 at 07:00 UTC


171838Z 1719/1807 34006KT P6SM -SN SCT012 BKN030 BKN180
TEMPO 1719/1722 11/2SM -SN BKN012 OVC040
FM172200 VRB03KT P6SM BKN030
TEMPO 1722/1803 5SM -SN OVC020
FM180300 VRB03KT P6SM SCT030
TEMPO 1803/1807 BKN030 RMK NXT FCST BY 180100Z



MET'MAP, your aeronautical weather chart ! - Copyright ORBIFLY December 2007 - Disclaimer

ORBIFLY MET'MAP TEAM :

Programming & Development : Alexandra Zaïnal
Concept & original design : Baudouin d'Aumeries
Assistance for programming : Marc-Olivier Méhu
Technical & hardware support : Manuel Goepfert

Contact : metmap@orbifly.com




SOURCES & CREDITS :

   NOAA       Earth
Advisory